createdAt,value
2024-04-09T00:00:25.680Z,50.72
2024-04-09T00:05:33.530Z,50.41
2024-04-09T00:10:37.775Z,50.93
2024-04-09T00:15:41.767Z,51.77
2024-04-09T00:20:45.819Z,50.99
2024-04-09T00:25:48.402Z,51.56
2024-04-09T00:30:52.149Z,51.53
2024-04-09T00:35:54.999Z,51.15
2024-04-09T00:40:59.512Z,51.14
2024-04-09T00:46:02.941Z,51.63
2024-04-09T00:51:08.833Z,52.06
2024-04-09T00:56:12.837Z,52.20
2024-04-09T01:01:18.486Z,51.42
2024-04-09T01:06:21.315Z,51.44
2024-04-09T01:11:24.052Z,51.95
2024-04-09T01:16:26.619Z,52.31
2024-04-09T01:21:29.263Z,52.10
2024-04-09T05:27:01.659Z,48.49
2024-04-09T05:32:06.083Z,47.90
2024-04-09T05:37:08.947Z,48.02
2024-04-09T05:42:11.941Z,46.47
2024-04-09T05:47:15.208Z,46.76
2024-04-09T05:52:17.955Z,46.32
2024-04-09T05:57:20.698Z,44.21
2024-04-09T06:02:23.424Z,44.02
2024-04-09T06:07:29.851Z,43.37
2024-04-09T06:12:32.555Z,42.57
2024-04-09T06:17:35.493Z,42.08
2024-04-09T06:22:38.275Z,42.11
2024-04-09T06:27:42.451Z,41.26
2024-04-09T06:32:45.438Z,41.12
2024-04-09T06:37:48.421Z,41.94
2024-04-09T06:42:50.958Z,40.26
2024-04-09T06:47:53.759Z,40.01
2024-04-09T06:52:56.441Z,38.78
2024-04-09T06:57:59.086Z,37.79
2024-04-09T07:03:06.562Z,35.52
2024-04-09T07:08:09.994Z,35.48
2024-04-09T07:13:12.847Z,34.87
2024-04-09T07:18:15.732Z,33.54
2024-04-09T07:23:18.428Z,32.97
2024-04-09T07:28:21.594Z,32.75
2024-04-09T07:33:25.015Z,32.41
2024-04-09T07:38:27.614Z,32.88
2024-04-09T07:43:35.353Z,33.56
2024-04-09T07:48:39.930Z,33.17
2024-04-09T07:53:42.854Z,33.06
2024-04-09T07:58:45.437Z,33.69
2024-04-09T08:03:48.235Z,32.80
2024-04-09T08:08:52.857Z,31.89
2024-04-09T08:13:55.684Z,30.74
2024-04-09T08:18:58.479Z,30.80
2024-04-09T08:24:01.323Z,30.29
2024-04-09T08:29:05.812Z,30.54
2024-04-09T08:34:10.362Z,29.39
2024-04-09T08:39:14.412Z,27.31
2024-04-09T08:44:18.976Z,26.29
2024-04-09T08:49:22.472Z,26.04
2024-04-09T08:54:25.806Z,26.12
2024-04-09T08:59:31.130Z,25.49
2024-04-09T09:04:40.333Z,25.01
2024-04-09T09:09:44.368Z,26.26
2024-04-09T09:14:53.570Z,23.90
2024-04-09T09:20:15.705Z,25.76
2024-04-09T09:25:27.577Z,23.93
2024-04-09T09:30:39.530Z,23.47
2024-04-09T09:35:49.650Z,23.46
2024-04-09T09:40:54.445Z,24.29
2024-04-09T09:45:58.646Z,22.84
2024-04-09T09:51:01.455Z,22.39
2024-04-09T09:56:07.270Z,23.22
2024-04-09T10:01:12.622Z,23.31
2024-04-09T10:06:16.124Z,22.53
2024-04-09T10:11:22.579Z,23.84
2024-04-09T10:16:25.303Z,22.98
2024-04-09T10:21:29.295Z,23.07
2024-04-09T10:26:32.560Z,23.97
2024-04-09T10:31:45.031Z,23.61
2024-04-09T10:36:50.087Z,23.57
2024-04-09T10:42:02.028Z,23.91
2024-04-09T10:47:07.066Z,24.15
2024-04-09T10:52:09.892Z,23.41
2024-04-09T10:57:12.494Z,23.92
2024-04-09T11:02:16.767Z,23.61
2024-04-09T11:07:19.589Z,24.87
2024-04-09T11:12:22.129Z,25.26
2024-04-09T11:17:24.927Z,24.20
2024-04-09T11:22:27.728Z,24.62
2024-04-09T11:27:30.788Z,24.62
2024-04-09T11:32:33.504Z,24.67
2024-04-09T11:37:36.050Z,23.04
2024-04-09T11:42:38.795Z,24.46
2024-04-09T11:47:41.749Z,24.12
2024-04-09T11:52:45.053Z,24.68
2024-04-09T11:57:47.778Z,24.80
2024-04-09T12:02:53.498Z,24.69
2024-04-09T12:07:56.187Z,23.20
2024-04-09T12:12:58.617Z,23.63
2024-04-09T12:18:01.426Z,24.07
2024-04-09T12:23:04.830Z,25.62
2024-04-09T12:28:07.772Z,24.47
2024-04-09T12:33:11.558Z,25.69
2024-04-09T12:38:14.353Z,24.79
2024-04-09T12:43:17.134Z,24.28
2024-04-09T12:48:22.413Z,24.89
2024-04-09T12:53:25.461Z,24.99
2024-04-09T12:58:28.162Z,25.48
2024-04-09T13:03:31.649Z,25.58
2024-04-09T13:08:34.481Z,26.35
2024-04-09T13:13:37.291Z,26.14
2024-04-09T13:18:40.168Z,26.57
2024-04-09T13:23:42.919Z,26.55
2024-04-09T13:28:45.513Z,26.85
2024-04-09T13:33:48.307Z,27.27
2024-04-09T13:38:51.133Z,27.83
2024-04-09T13:43:53.858Z,27.93
2024-04-09T13:48:56.762Z,28.03
2024-04-09T13:53:59.502Z,28.73
2024-04-09T13:59:02.163Z,28.41
2024-04-09T14:04:06.220Z,27.94
2024-04-09T14:09:10.229Z,28.11
2024-04-09T14:14:13.317Z,28.72
2024-04-09T14:19:21.105Z,29.74
2024-04-09T14:24:23.863Z,29.23
2024-04-09T14:29:27.351Z,29.93
2024-04-09T14:34:30.090Z,29.96
2024-04-09T14:39:32.774Z,29.70
2024-04-09T14:44:35.519Z,29.98
2024-04-09T14:49:38.238Z,31.50
2024-04-09T14:54:42.837Z,30.86
2024-04-09T14:59:46.072Z,31.43
2024-04-09T15:04:48.710Z,31.51
2024-04-09T15:09:52.876Z,31.79
2024-04-09T15:14:55.653Z,32.26
2024-04-09T15:19:58.316Z,32.94
2024-04-09T15:25:01.401Z,34.04
2024-04-09T15:30:07.125Z,32.58
2024-04-09T15:35:11.130Z,32.71
2024-04-09T15:40:18.614Z,33.10
2024-04-09T15:45:21.191Z,33.82
2024-04-09T15:50:24.139Z,34.11
2024-04-09T15:55:27.182Z,34.50
2024-04-09T16:00:29.895Z,33.99
2024-04-09T16:05:32.885Z,34.55
2024-04-09T16:10:35.775Z,35.40
2024-04-09T16:15:39.463Z,35.36
2024-04-09T16:20:42.076Z,35.42
2024-04-09T16:25:44.850Z,35.39
2024-04-09T16:30:47.475Z,36.30
2024-04-09T16:35:51.201Z,36.89
2024-04-09T16:40:53.893Z,36.70
2024-04-09T16:45:56.521Z,36.64
2024-04-09T16:51:01.052Z,37.01
2024-04-09T16:56:04.416Z,37.88
2024-04-09T17:01:07.853Z,37.08
2024-04-09T17:06:10.559Z,37.60
2024-04-09T17:11:13.279Z,39.55
2024-04-09T17:16:16.189Z,39.13
2024-04-09T17:21:18.926Z,38.59
2024-04-09T17:26:21.590Z,40.16
2024-04-09T17:31:24.223Z,40.80
2024-04-09T17:36:27.880Z,41.70
2024-04-09T17:41:30.597Z,41.66
2024-04-09T17:46:33.157Z,41.74
2024-04-09T17:51:37.264Z,43.74
2024-04-09T17:56:41.713Z,42.93
2024-04-09T18:01:44.493Z,43.30
2024-04-09T18:06:47.807Z,43.44
2024-04-09T18:11:50.582Z,43.97
2024-04-09T18:16:53.385Z,44.21
2024-04-09T18:21:56.097Z,44.47
2024-04-09T18:27:00.257Z,44.87
2024-04-09T18:32:02.924Z,44.49
2024-04-09T18:37:07.836Z,44.52
2024-04-09T18:42:10.439Z,44.65
2024-04-09T18:47:13.214Z,45.10
2024-04-09T18:52:16.431Z,44.94
2024-04-09T18:57:21.473Z,45.19
2024-04-09T19:02:24.522Z,45.64
2024-04-09T19:07:28.245Z,45.81
2024-04-09T19:12:31.307Z,46.21
2024-04-09T19:17:34.069Z,47.68
2024-04-09T19:22:36.898Z,47.45
2024-04-09T19:27:39.597Z,47.55
2024-04-09T19:32:43.473Z,47.32
2024-04-09T19:37:46.413Z,48.49
2024-04-09T19:42:49.575Z,47.94
2024-04-09T19:47:52.356Z,48.78
2024-04-09T19:52:55.482Z,48.06
2024-04-09T19:57:58.116Z,48.99
2024-04-09T20:03:01.571Z,48.62
2024-04-09T20:08:04.947Z,49.97
2024-04-09T20:13:08.078Z,49.38
2024-04-09T20:18:11.803Z,49.43
2024-04-09T20:23:15.065Z,50.20
2024-04-09T20:28:17.724Z,50.60
2024-04-09T20:33:21.245Z,49.80
2024-04-09T20:38:26.631Z,50.62
2024-04-09T20:43:29.573Z,50.03
2024-04-09T20:48:32.346Z,50.72
2024-04-09T20:53:35.710Z,50.64
2024-04-09T20:58:39.024Z,51.09
2024-04-09T21:03:43.501Z,50.22
2024-04-09T21:08:46.241Z,50.94
2024-04-09T21:13:48.908Z,50.32
2024-04-09T21:18:51.826Z,50.92
2024-04-09T21:23:54.540Z,51.82
2024-04-09T21:28:57.181Z,51.79
2024-04-09T21:33:59.876Z,52.10
2024-04-09T21:39:02.815Z,51.20
2024-04-09T21:44:05.572Z,51.80
2024-04-09T21:49:08.748Z,52.50
2024-04-09T21:54:11.487Z,52.89
2024-04-09T21:59:14.060Z,52.55
2024-04-09T22:04:16.683Z,53.28
2024-04-09T22:09:19.293Z,53.25
2024-04-09T22:14:21.984Z,52.95
2024-04-09T22:19:24.890Z,53.60
2024-04-09T22:24:27.528Z,53.27
2024-04-09T22:29:30.101Z,53.75
2024-04-09T22:34:32.896Z,53.87
2024-04-09T22:39:35.557Z,53.95
2024-04-09T22:44:38.457Z,54.31
2024-04-09T22:49:41.068Z,54.98
2024-04-09T22:54:43.694Z,54.80
2024-04-09T22:59:46.555Z,55.26
2024-04-09T23:04:50.120Z,55.96
2024-04-09T23:09:53.292Z,56.22
2024-04-09T23:14:56.411Z,55.94
2024-04-09T23:19:59.210Z,56.63
2024-04-09T23:25:02.368Z,56.22
2024-04-09T23:30:07.037Z,55.21
2024-04-09T23:35:09.950Z,55.95
